createdAt,value
2023-05-19T00:01:45.377Z,102221.00
2023-05-19T00:04:15.586Z,102213.13
2023-05-19T00:06:44.748Z,102226.31
2023-05-19T00:09:12.922Z,102230.56
2023-05-19T00:11:41.939Z,102239.72
2023-05-19T00:14:10.704Z,102239.31
2023-05-19T00:16:39.327Z,102227.94
2023-05-19T00:19:10.049Z,102232.28
2023-05-19T00:21:40.208Z,102231.13
2023-05-19T00:24:08.424Z,102236.66
2023-05-19T00:26:36.316Z,102221.75
2023-05-19T00:29:06.352Z,102231.25
2023-05-19T00:31:34.878Z,102223.72
2023-05-19T00:34:02.879Z,102222.34
2023-05-19T00:36:30.982Z,102226.09
2023-05-19T00:39:00.237Z,102218.34
2023-05-19T00:41:29.869Z,102223.16
2023-05-19T00:43:57.652Z,102221.84
2023-05-19T00:46:25.951Z,102225.13
2023-05-19T00:48:53.857Z,102222.00
2023-05-19T00:51:21.920Z,102221.00
2023-05-19T00:53:51.983Z,102221.16
2023-05-19T00:56:22.468Z,102223.81
2023-05-19T00:58:52.155Z,102221.16
2023-05-19T01:01:21.515Z,102217.25
2023-05-19T01:03:51.346Z,102221.78
2023-05-19T01:06:20.884Z,102222.72
2023-05-19T01:08:49.896Z,102228.38
2023-05-19T01:11:17.766Z,102232.13
2023-05-19T01:13:47.053Z,102215.63
2023-05-19T01:16:20.543Z,102229.19
2023-05-19T01:18:56.156Z,102222.91
2023-05-19T01:22:06.755Z,102216.91
2023-05-19T01:25:08.833Z,102215.75
2023-05-19T01:28:07.000Z,102215.75
2023-05-19T01:30:38.306Z,102221.38
2023-05-19T01:33:09.038Z,102225.94
2023-05-19T01:35:38.127Z,102222.75
2023-05-19T01:38:09.872Z,102226.91
2023-05-19T01:40:38.243Z,102227.09
2023-05-19T01:43:06.169Z,102222.56
2023-05-19T01:45:36.125Z,102232.94
2023-05-19T01:48:07.787Z,102226.25
2023-05-19T01:50:37.178Z,102229.19
2023-05-19T01:53:05.099Z,102233.94
2023-05-19T01:55:36.239Z,102228.44
2023-05-19T01:58:12.128Z,102227.03
2023-05-19T02:00:50.424Z,102228.22
2023-05-19T02:03:31.017Z,102225.69
2023-05-19T02:06:04.504Z,102226.94
2023-05-19T02:08:43.342Z,102230.75
2023-05-19T02:11:16.120Z,102230.31
2023-05-19T02:13:45.698Z,102228.50
2023-05-19T02:16:15.658Z,102226.53
2023-05-19T02:18:45.430Z,102231.81
2023-05-19T02:21:13.820Z,102227.16
2023-05-19T02:23:42.274Z,102230.53
2023-05-19T02:26:10.266Z,102231.16
2023-05-19T02:28:38.130Z,102231.16
2023-05-19T02:31:08.842Z,102232.00
2023-05-19T02:33:38.060Z,102231.38
2023-05-19T02:36:06.849Z,102226.91
2023-05-19T02:38:34.709Z,102222.91
2023-05-19T02:41:02.592Z,102223.75
2023-05-19T02:43:31.410Z,102219.91
2023-05-19T02:45:59.475Z,102206.53
2023-05-19T02:48:28.034Z,102218.63
2023-05-19T02:50:57.337Z,102227.38
2023-05-19T02:53:25.564Z,102222.19
2023-05-19T02:55:53.761Z,102221.09
2023-05-19T02:58:21.664Z,102218.97
2023-05-19T03:00:49.520Z,102218.84
2023-05-19T03:03:18.129Z,102215.13
2023-05-19T03:05:46.101Z,102220.31
2023-05-19T03:08:15.519Z,102222.06
2023-05-19T03:10:43.457Z,102221.94
2023-05-19T03:13:11.403Z,102215.78
2023-05-19T03:15:39.363Z,102210.78
2023-05-19T03:18:07.369Z,102209.31
2023-05-19T03:20:35.288Z,102210.78
2023-05-19T03:23:03.225Z,102208.13
2023-05-19T03:25:32.817Z,102212.47
2023-05-19T03:28:00.718Z,102207.72
2023-05-19T03:30:28.645Z,102205.06
2023-05-19T03:33:07.539Z,102216.63
2023-05-19T03:35:35.566Z,102211.00
2023-05-19T03:38:03.737Z,102208.72
2023-05-19T03:40:33.326Z,102208.44
2023-05-19T03:43:06.173Z,102212.91
2023-05-19T03:45:38.713Z,102208.44
2023-05-19T03:48:24.359Z,102215.00
2023-05-19T03:51:12.311Z,102202.34
2023-05-19T03:53:41.258Z,102210.31
2023-05-19T03:56:13.544Z,102213.75
2023-05-19T03:58:43.444Z,102215.75
2023-05-19T04:01:11.894Z,102210.31
2023-05-19T04:03:39.976Z,102213.06
2023-05-19T04:06:09.163Z,102205.78
2023-05-19T04:08:36.965Z,102213.47
2023-05-19T04:11:05.146Z,102209.81
2023-05-19T04:13:35.051Z,102215.09
2023-05-19T04:16:03.115Z,102216.34
2023-05-19T04:18:31.138Z,102208.44
2023-05-19T04:20:59.047Z,102214.03
2023-05-19T04:23:26.965Z,102212.31
2023-05-19T04:25:57.112Z,102208.44
2023-05-19T04:28:25.262Z,102213.38
2023-05-19T04:30:55.118Z,102212.00
2023-05-19T04:33:23.066Z,102216.91
2023-05-19T04:35:51.683Z,102223.41
2023-05-19T04:38:20.143Z,102223.19
2023-05-19T04:40:51.969Z,102219.69
2023-05-19T04:43:22.168Z,102220.75
2023-05-19T04:45:51.427Z,102224.94
2023-05-19T04:48:23.047Z,102219.41
2023-05-19T04:50:51.861Z,102225.84
2023-05-19T04:53:21.681Z,102228.63
2023-05-19T04:55:50.258Z,102231.91
2023-05-19T04:58:18.329Z,102228.16
2023-05-19T05:00:46.698Z,102224.78
2023-05-19T05:03:15.162Z,102224.34
2023-05-19T05:05:44.514Z,102222.66
2023-05-19T05:08:12.511Z,102216.84
2023-05-19T05:10:43.772Z,102219.03
2023-05-19T05:13:12.340Z,102218.38
2023-05-19T05:15:42.154Z,102221.16
2023-05-19T05:18:11.789Z,102219.66
2023-05-19T05:20:40.922Z,102225.25
2023-05-19T05:23:14.348Z,102233.69
2023-05-19T05:25:45.044Z,102224.13
2023-05-19T05:28:13.543Z,102224.41
2023-05-19T05:30:43.640Z,102226.34
2023-05-19T05:33:11.825Z,102223.09
2023-05-19T05:35:42.047Z,102227.59
2023-05-19T05:38:13.675Z,102224.41
2023-05-19T05:40:41.946Z,102225.16
2023-05-19T05:43:10.496Z,102226.59
2023-05-19T05:45:45.413Z,102219.72
2023-05-19T05:48:14.003Z,102224.94
2023-05-19T05:50:44.460Z,102219.59
2023-05-19T05:53:18.872Z,102226.81
2023-05-19T05:55:47.922Z,102221.38
2023-05-19T05:58:17.000Z,102232.69
2023-05-19T06:00:45.349Z,102227.06
2023-05-19T06:03:14.501Z,102224.31
2023-05-19T06:05:42.569Z,102226.53
2023-05-19T06:08:11.227Z,102212.78
2023-05-19T06:10:44.064Z,102219.84
2023-05-19T06:13:13.878Z,102219.28
2023-05-19T06:15:42.686Z,102222.66
2023-05-19T06:18:18.099Z,102224.75
2023-05-19T06:20:45.988Z,102225.41
2023-05-19T06:23:13.877Z,102228.03
2023-05-19T06:25:43.115Z,102219.78
2023-05-19T06:28:11.103Z,102218.47
2023-05-19T06:30:39.495Z,102214.16
2023-05-19T06:33:39.788Z,102217.34
2023-05-19T06:36:10.010Z,102215.09
2023-05-19T06:38:39.971Z,102221.03
2023-05-19T06:41:09.653Z,102214.00
2023-05-19T06:43:38.378Z,102212.63
2023-05-19T06:46:06.431Z,102218.59
2023-05-19T06:48:34.858Z,102214.75
2023-05-19T06:51:03.943Z,102214.59
2023-05-19T06:53:34.927Z,102217.16
2023-05-19T06:56:09.094Z,102211.25
2023-05-19T06:58:39.760Z,102214.16
2023-05-19T07:01:08.078Z,102219.06
2023-05-19T07:03:42.712Z,102220.66
2023-05-19T07:06:12.543Z,102217.63
2023-05-19T07:08:40.481Z,102215.63
2023-05-19T07:11:12.332Z,102215.47
2023-05-19T07:13:41.441Z,102214.13
2023-05-19T07:16:09.731Z,102214.81
2023-05-19T07:18:37.718Z,102212.78
2023-05-19T07:21:07.228Z,102216.84
2023-05-19T07:23:35.191Z,102211.91
2023-05-19T07:26:03.254Z,102211.38
2023-05-19T07:28:32.463Z,102218.28
2023-05-19T07:31:00.698Z,102219.47
2023-05-19T07:33:28.618Z,102216.84
2023-05-19T07:35:56.631Z,102212.31
2023-05-19T07:38:24.533Z,102212.03
2023-05-19T07:40:52.549Z,102206.44
2023-05-19T07:43:20.437Z,102202.84
2023-05-19T07:45:49.734Z,102197.63
2023-05-19T07:48:18.770Z,102192.22
2023-05-19T07:50:46.773Z,102202.22
2023-05-19T07:53:14.814Z,102192.81
2023-05-19T07:55:42.756Z,102193.44
2023-05-19T07:58:10.647Z,102201.91
2023-05-19T08:00:38.624Z,102196.19
2023-05-19T08:03:08.252Z,102197.13
2023-05-19T08:05:36.321Z,102192.66
2023-05-19T08:08:04.352Z,102194.56
2023-05-19T08:10:32.464Z,102188.47
2023-05-19T08:13:00.529Z,102186.25
2023-05-19T08:15:28.487Z,102191.88
2023-05-19T08:17:56.408Z,102191.22
2023-05-19T08:20:25.793Z,102182.22
2023-05-19T08:22:53.687Z,102194.47
2023-05-19T08:25:21.713Z,102198.16
2023-05-19T08:27:49.647Z,102198.03
2023-05-19T08:30:17.628Z,102200.13
2023-05-19T08:32:45.531Z,102201.13
2023-05-19T08:35:13.510Z,102202.75
2023-05-19T08:37:42.820Z,102200.94
2023-05-19T08:40:13.483Z,102205.69
2023-05-19T08:42:41.383Z,102205.69
2023-05-19T08:45:10.021Z,102195.97
2023-05-19T08:47:38.004Z,102197.16
2023-05-19T08:50:09.883Z,102196.31
2023-05-19T08:52:47.867Z,102189.56
2023-05-19T08:55:26.003Z,102185.09
2023-05-19T08:57:54.206Z,102190.38
2023-05-19T09:00:22.489Z,102191.69
2023-05-19T09:03:00.946Z,102182.84
2023-05-19T09:05:34.648Z,102179.19
2023-05-19T09:08:04.876Z,102177.31
2023-05-19T09:10:32.728Z,102163.72
2023-05-19T09:13:00.684Z,102164.16
2023-05-19T09:15:29.262Z,102169.44
2023-05-19T09:18:10.440Z,102153.53
2023-05-19T09:20:40.148Z,102154.31
2023-05-19T09:23:13.652Z,102158.44
2023-05-19T09:25:48.150Z,102153.72
2023-05-19T09:28:16.348Z,102147.31
2023-05-19T09:30:44.286Z,102150.06
2023-05-19T09:33:12.782Z,102158.84
2023-05-19T09:35:40.732Z,102157.78
2023-05-19T09:38:10.999Z,102148.06
2023-05-19T09:40:38.836Z,102143.63
2023-05-19T09:43:09.001Z,102144.56
2023-05-19T09:45:37.200Z,102143.59
2023-05-19T09:48:05.656Z,102146.09
2023-05-19T09:50:33.950Z,102153.22
2023-05-19T09:53:01.937Z,102143.31
2023-05-19T09:55:33.008Z,102138.53
2023-05-19T09:58:04.057Z,102145.41
2023-05-19T10:00:34.068Z,102132.69
2023-05-19T10:03:03.127Z,102128.31
2023-05-19T10:05:31.625Z,102129.25
2023-05-19T10:08:00.312Z,102117.00
2023-05-19T10:10:28.822Z,102126.88
2023-05-19T10:13:00.170Z,102113.75
2023-05-19T10:15:28.421Z,102119.97
2023-05-19T10:17:56.945Z,102111.88
2023-05-19T10:20:25.012Z,102114.84
2023-05-19T10:22:52.986Z,102119.44
2023-05-19T10:25:21.138Z,102123.47
2023-05-19T10:27:53.173Z,102118.44
2023-05-19T10:30:27.666Z,102121.22
2023-05-19T10:32:57.949Z,102109.03
2023-05-19T10:35:48.631Z,102115.88
2023-05-19T10:38:26.075Z,102103.63
2023-05-19T10:41:01.575Z,102114.78
2023-05-19T10:43:38.667Z,102109.25
2023-05-19T10:46:08.113Z,102106.78
2023-05-19T10:48:37.090Z,102111.50
2023-05-19T10:51:06.271Z,102112.28
2023-05-19T10:53:35.120Z,102112.50
2023-05-19T10:56:04.154Z,102114.06
2023-05-19T10:58:40.096Z,102101.44
2023-05-19T11:01:11.002Z,102099.84
2023-05-19T11:03:49.079Z,102093.28
2023-05-19T11:06:21.594Z,102093.59
2023-05-19T11:08:54.409Z,102085.09
2023-05-19T11:11:23.382Z,102089.03
2023-05-19T11:13:56.107Z,102090.47
2023-05-19T11:16:33.376Z,102107.16
2023-05-19T11:19:01.686Z,102100.31
2023-05-19T11:21:42.809Z,102102.28
2023-05-19T11:24:10.907Z,102084.72
2023-05-19T11:26:42.917Z,102107.75
2023-05-19T11:29:11.561Z,102092.25
2023-05-19T11:31:41.273Z,102088.09
2023-05-19T11:34:09.270Z,102087.94
2023-05-19T11:36:38.104Z,102083.16
2023-05-19T11:39:07.131Z,102083.19
2023-05-19T11:41:40.549Z,102072.78
2023-05-19T11:44:11.293Z,102072.03
2023-05-19T11:46:40.754Z,102082.88
2023-05-19T11:49:08.857Z,102073.47
2023-05-19T11:51:38.297Z,102083.25
2023-05-19T11:54:06.815Z,102080.19
2023-05-19T11:56:35.803Z,102073.66
2023-05-19T11:59:03.740Z,102081.00
2023-05-19T12:01:31.965Z,102085.03
2023-05-19T12:04:01.443Z,102082.81
2023-05-19T12:06:29.867Z,102067.56
2023-05-19T12:08:59.201Z,102078.22
2023-05-19T12:11:29.558Z,102084.22
2023-05-19T12:14:00.266Z,102068.63
2023-05-19T12:16:34.529Z,102068.69
2023-05-19T12:19:06.644Z,102058.50
2023-05-19T12:21:34.676Z,102080.25
2023-05-19T12:24:02.802Z,102064.97
2023-05-19T12:26:30.681Z,102074.75
2023-05-19T12:28:59.725Z,102058.91
2023-05-19T12:31:27.871Z,102054.34
2023-05-19T12:33:56.858Z,102059.22
2023-05-19T12:36:27.057Z,102068.38
2023-05-19T12:38:55.587Z,102057.22
2023-05-19T12:41:25.438Z,102055.78
2023-05-19T12:43:53.764Z,102061.28
2023-05-19T12:46:22.504Z,102056.41
2023-05-19T12:48:51.573Z,102066.31
2023-05-19T12:51:19.982Z,102061.00
2023-05-19T12:53:51.377Z,102057.41
2023-05-19T12:56:19.542Z,102058.34
2023-05-19T12:58:47.672Z,102054.75
2023-05-19T13:01:19.237Z,102044.31
2023-05-19T13:03:47.561Z,102045.13
2023-05-19T13:06:15.846Z,102039.84
2023-05-19T13:08:43.780Z,102042.84
2023-05-19T13:11:13.077Z,102032.50
2023-05-19T13:13:41.066Z,102033.63
2023-05-19T13:16:09.183Z,102032.34
2023-05-19T13:18:38.341Z,102041.72
2023-05-19T13:21:06.670Z,102035.97
2023-05-19T13:23:35.073Z,102043.47
2023-05-19T13:26:04.974Z,102046.16
2023-05-19T13:28:34.859Z,102039.47
2023-05-19T13:31:02.977Z,102030.78
2023-05-19T13:33:31.011Z,102044.56
2023-05-19T13:35:58.983Z,102036.09
2023-05-19T13:38:26.929Z,102035.19
2023-05-19T13:40:54.900Z,102041.09
2023-05-19T13:43:22.947Z,102034.97
2023-05-19T13:45:52.329Z,102038.91
2023-05-19T13:48:20.482Z,102037.78
2023-05-19T13:50:48.537Z,102033.47
2023-05-19T13:53:16.485Z,102035.47
2023-05-19T13:55:44.550Z,102036.75
2023-05-19T13:58:14.324Z,102043.84
2023-05-19T14:00:42.275Z,102050.81
2023-05-19T14:03:11.755Z,102044.25
2023-05-19T14:05:39.867Z,102044.50
2023-05-19T14:08:07.735Z,102047.41
2023-05-19T14:10:35.998Z,102051.53
2023-05-19T14:13:29.718Z,102046.34
2023-05-19T14:15:52.463Z,102045.81
2023-05-19T14:18:21.877Z,102034.66
2023-05-19T14:20:49.787Z,102034.19
2023-05-19T14:23:19.909Z,102043.56
2023-05-19T14:25:47.883Z,102034.88
2023-05-19T14:28:15.734Z,102039.91
2023-05-19T14:30:44.201Z,102040.69
2023-05-19T14:33:12.156Z,102042.34
2023-05-19T14:35:41.547Z,102043.13
2023-05-19T14:38:09.556Z,102045.94
2023-05-19T14:40:37.793Z,102046.25
2023-05-19T14:43:05.734Z,102036.72
2023-05-19T14:45:33.633Z,102039.56
2023-05-19T14:48:01.505Z,102050.09
2023-05-19T14:50:29.556Z,102056.44
2023-05-19T14:52:59.022Z,102045.94
2023-05-19T14:55:26.926Z,102051.56
2023-05-19T14:57:54.777Z,102050.84
2023-05-19T15:00:22.684Z,102033.25
2023-05-19T15:02:51.632Z,102048.63
2023-05-19T15:05:19.611Z,102055.75
2023-05-19T15:07:47.462Z,102049.75
2023-05-19T15:10:16.957Z,102049.84
2023-05-19T15:12:44.863Z,102051.53
2023-05-19T15:15:12.825Z,102046.88
2023-05-19T15:17:41.064Z,102052.31
2023-05-19T15:20:09.727Z,102052.31
2023-05-19T15:22:37.636Z,102051.53
2023-05-19T15:25:06.303Z,102051.69
2023-05-19T15:27:37.166Z,102052.13
2023-05-19T15:30:05.570Z,102059.28
2023-05-19T15:32:34.758Z,102049.03
2023-05-19T15:35:02.644Z,102048.41
2023-05-19T15:37:30.579Z,102032.72
2023-05-19T15:39:58.589Z,102028.78
2023-05-19T15:42:26.642Z,102035.25
2023-05-19T15:44:55.919Z,102047.53
2023-05-19T15:47:23.957Z,102030.44
2023-05-19T15:49:51.872Z,102040.47
2023-05-19T15:52:19.845Z,102034.34
2023-05-19T15:54:48.686Z,102036.28
2023-05-19T15:57:16.742Z,102037.53
2023-05-19T15:59:44.943Z,102032.00
2023-05-19T16:02:14.380Z,102036.00
2023-05-19T16:04:42.466Z,102035.72
2023-05-19T16:07:10.378Z,102040.53
2023-05-19T16:09:38.253Z,102038.88
2023-05-19T16:12:06.797Z,102040.91
2023-05-19T16:14:36.546Z,102033.16
2023-05-19T16:17:04.721Z,102030.94
2023-05-19T16:19:34.212Z,102024.09
2023-05-19T16:22:02.152Z,102023.63
2023-05-19T16:24:30.008Z,102020.28
2023-05-19T16:26:57.966Z,102026.03
2023-05-19T16:29:26.001Z,102027.75
2023-05-19T16:31:54.015Z,102028.66
2023-05-19T16:34:21.954Z,102022.78
2023-05-19T16:36:51.297Z,102027.13
2023-05-19T16:39:19.225Z,102021.06
2023-05-19T16:41:47.092Z,102018.00
2023-05-19T16:44:15.044Z,102020.34
2023-05-19T16:46:43.186Z,102016.38
2023-05-19T16:49:11.272Z,102022.88
2023-05-19T16:51:39.127Z,102034.88
2023-05-19T16:54:08.375Z,102030.50
2023-05-19T16:56:36.300Z,102027.78
2023-05-19T16:59:04.210Z,102025.81
2023-05-19T17:01:32.636Z,102019.09
2023-05-19T17:04:00.688Z,102018.59
2023-05-19T17:06:28.593Z,102025.81
2023-05-19T17:08:56.452Z,102031.53
2023-05-19T17:11:26.697Z,102025.47
2023-05-19T17:13:54.722Z,102023.28
2023-05-19T17:16:23.368Z,102025.84
2023-05-19T17:18:51.478Z,102022.28
2023-05-19T17:21:19.545Z,102029.50
2023-05-19T17:23:47.557Z,102019.94
2023-05-19T17:26:15.828Z,102025.28
2023-05-19T17:28:45.169Z,102022.81
2023-05-19T17:31:13.655Z,102022.41
2023-05-19T17:33:42.109Z,102028.97
2023-05-19T17:36:10.068Z,102022.75
2023-05-19T17:38:40.233Z,102030.66
2023-05-19T17:41:10.720Z,102028.13
2023-05-19T17:43:39.052Z,102033.00
2023-05-19T17:46:08.951Z,102030.94
2023-05-19T17:48:37.193Z,102037.84
2023-05-19T17:51:07.046Z,102034.97
2023-05-19T17:53:36.544Z,102048.94
2023-05-19T17:56:07.244Z,102053.13
2023-05-19T17:58:36.022Z,102042.88
2023-05-19T18:01:04.250Z,102045.53
2023-05-19T18:03:34.554Z,102052.25
2023-05-19T18:06:02.714Z,102049.72
2023-05-19T18:08:32.066Z,102041.16
2023-05-19T18:11:00.352Z,102040.44
2023-05-19T18:13:28.270Z,102035.38
2023-05-19T18:15:57.706Z,102038.03
2023-05-19T18:18:25.665Z,102031.69
2023-05-19T18:20:54.945Z,102034.16
2023-05-19T18:23:22.818Z,102044.22
2023-05-19T18:25:51.697Z,102052.38
2023-05-19T18:28:19.616Z,102036.97
2023-05-19T18:30:47.559Z,102048.84
2023-05-19T18:33:15.462Z,102051.69
2023-05-19T18:35:43.375Z,102058.22
2023-05-19T18:38:12.601Z,102061.13
2023-05-19T18:40:43.892Z,102064.97
2023-05-19T18:43:11.782Z,102062.28
2023-05-19T18:45:39.816Z,102067.34
2023-05-19T18:48:08.207Z,102072.69
2023-05-19T18:50:36.460Z,102065.38
2023-05-19T18:53:04.510Z,102073.44
2023-05-19T18:55:34.033Z,102077.09
2023-05-19T18:58:02.536Z,102077.03
2023-05-19T19:00:30.927Z,102076.28
2023-05-19T19:03:01.729Z,102073.88
2023-05-19T19:05:29.759Z,102070.81
2023-05-19T19:07:57.748Z,102073.97
2023-05-19T19:10:25.773Z,102072.81
2023-05-19T19:12:55.220Z,102071.75
2023-05-19T19:15:23.153Z,102068.00
2023-05-19T19:17:51.341Z,102077.19
2023-05-19T19:20:19.388Z,102069.81
2023-05-19T19:22:47.359Z,102066.31
2023-05-19T19:25:15.545Z,102066.25
2023-05-19T19:27:43.519Z,102079.06
2023-05-19T19:30:13.468Z,102071.97
2023-05-19T19:32:41.303Z,102074.44
2023-05-19T19:35:10.327Z,102073.88
2023-05-19T19:37:38.388Z,102082.50
2023-05-19T19:40:08.126Z,102079.91
2023-05-19T19:42:38.224Z,102082.81
2023-05-19T19:45:07.393Z,102079.59
2023-05-19T19:47:36.882Z,102076.19
2023-05-19T19:50:05.807Z,102069.97
2023-05-19T19:52:33.866Z,102072.97
2023-05-19T19:55:01.760Z,102074.66
2023-05-19T19:57:31.611Z,102079.78
2023-05-19T20:00:07.452Z,102079.78
2023-05-19T20:02:48.388Z,102078.25
2023-05-19T20:05:27.222Z,102084.19
2023-05-19T20:07:55.293Z,102079.75
2023-05-19T20:10:23.317Z,102075.75
2023-05-19T20:12:51.767Z,102083.81
2023-05-19T20:15:19.974Z,102087.78
2023-05-19T20:17:49.308Z,102080.06
2023-05-19T20:20:17.625Z,102093.22
2023-05-19T20:22:45.959Z,102087.59
2023-05-19T20:25:13.964Z,102092.81
2023-05-19T20:27:41.864Z,102098.19
2023-05-19T20:30:10.600Z,102093.94
2023-05-19T20:32:38.934Z,102094.53
2023-05-19T20:35:09.240Z,102100.34
2023-05-19T20:37:37.190Z,102106.53
2023-05-19T20:40:06.197Z,102107.38
2023-05-19T20:42:34.244Z,102111.44
2023-05-19T20:45:03.013Z,102108.06
2023-05-19T20:47:31.169Z,102118.53
2023-05-19T20:49:59.620Z,102114.28
2023-05-19T20:52:28.972Z,102107.94
2023-05-19T20:54:56.842Z,102112.19
2023-05-19T20:57:27.171Z,102111.25
2023-05-19T20:59:56.769Z,102109.81
2023-05-19T21:02:24.700Z,102115.31
2023-05-19T21:04:52.884Z,102112.69
2023-05-19T21:07:20.897Z,102109.28
2023-05-19T21:09:51.432Z,102103.34
2023-05-19T21:12:23.808Z,102102.63
2023-05-19T21:14:52.002Z,102099.41
2023-05-19T21:17:21.014Z,102098.84
2023-05-19T21:19:50.579Z,102109.56
2023-05-19T21:22:18.860Z,102114.63
2023-05-19T21:24:46.876Z,102117.16
2023-05-19T21:27:16.248Z,102117.00
2023-05-19T21:29:44.223Z,102118.28
2023-05-19T21:32:12.242Z,102116.31
2023-05-19T21:34:40.762Z,102122.38
2023-05-19T21:37:08.648Z,102117.16
2023-05-19T21:39:36.534Z,102124.34
2023-05-19T21:42:04.814Z,102128.13
2023-05-19T21:44:34.081Z,102137.31
2023-05-19T21:47:01.987Z,102127.84
2023-05-19T21:49:29.865Z,102129.81
2023-05-19T21:51:57.719Z,102137.13
2023-05-19T21:54:25.802Z,102139.66
2023-05-19T21:56:53.698Z,102138.97
2023-05-19T21:59:23.174Z,102129.97
2023-05-19T22:01:52.839Z,102137.97
2023-05-19T22:04:21.228Z,102136.56
2023-05-19T22:06:49.444Z,102132.06
2023-05-19T22:09:18.008Z,102138.66
2023-05-19T22:11:46.270Z,102136.56
2023-05-19T22:14:14.774Z,102138.66
2023-05-19T22:16:42.965Z,102138.34
2023-05-19T22:19:12.621Z,102130.63
2023-05-19T22:21:40.677Z,102137.09
2023-05-19T22:24:08.642Z,102127.09
2023-05-19T22:26:36.569Z,102134.41
2023-05-19T22:29:04.426Z,102140.19
2023-05-19T22:31:32.422Z,102135.34
2023-05-19T22:34:00.468Z,102141.69
2023-05-19T22:36:29.813Z,102133.78
2023-05-19T22:38:57.810Z,102142.19
2023-05-19T22:41:25.775Z,102142.06
2023-05-19T22:43:53.703Z,102144.03
2023-05-19T22:46:21.670Z,102145.56
2023-05-19T22:48:49.829Z,102144.16
2023-05-19T22:51:17.732Z,102146.53
2023-05-19T22:53:48.448Z,102149.75
2023-05-19T22:56:17.607Z,102150.31
2023-05-19T22:58:45.758Z,102150.22
2023-05-19T23:01:13.756Z,102160.03
2023-05-19T23:03:41.750Z,102155.13
2023-05-19T23:06:09.644Z,102153.31
2023-05-19T23:08:37.623Z,102157.09
2023-05-19T23:11:07.282Z,102153.00
2023-05-19T23:13:35.176Z,102155.97
2023-05-19T23:16:03.049Z,102153.13
2023-05-19T23:18:31.142Z,102153.38
2023-05-19T23:20:59.170Z,102148.31
2023-05-19T23:23:27.679Z,102146.63
2023-05-19T23:25:57.090Z,102150.81
2023-05-19T23:28:26.437Z,102144.44
2023-05-19T23:30:54.523Z,102141.72
2023-05-19T23:33:22.537Z,102148.97
2023-05-19T23:35:50.777Z,102145.16
2023-05-19T23:38:18.700Z,102148.03
2023-05-19T23:40:46.635Z,102150.88
2023-05-19T23:43:14.610Z,102146.41
2023-05-19T23:45:44.120Z,102141.78
2023-05-19T23:48:12.158Z,102142.78
2023-05-19T23:50:40.148Z,102136.75
2023-05-19T23:53:08.217Z,102141.81
2023-05-19T23:55:36.306Z,102141.19
2023-05-19T23:58:04.372Z,102138.69
